Time;durP1;ratioP1;P1;durP2;ratioP2;P2;SDS_P1;SDS_P2;PMS_P1;PMS_P2;Temp;Humidity;BMP_temperature;BMP_pressure;BME280_temperature;BME280_humidity;BME280_pressure;Samples;Min_cycle;Max_cycle;Signal;HPM_P1;HPM_P2
2023/03/31 00:00:36;;;;;;;32.77;5.83;;;;;;;;;;5115023;28;20194;-78
2023/03/31 00:03:08;;;;;;;35.83;6.13;;;;;;;;;;5115393;28;20293;-77
2023/03/31 00:05:38;;;;;;;38.80;7.60;;;;;;;;;;5114258;28;20612;-76
2023/03/31 00:08:06;;;;;;;31.47;6.77;;;;;;;;;;5115146;28;20674;-78
2023/03/31 00:10:34;;;;;;;38.67;6.13;;;;;;;;;;5115326;28;20372;-78
2023/03/31 00:13:02;;;;;;;33.20;6.67;;;;;;;;;;5115005;28;20225;-79
2023/03/31 00:15:29;;;;;;;41.13;6.77;;;;;;;;;;5114916;28;20644;-78
2023/03/31 00:17:59;;;;;;;43.20;6.13;;;;;;;;;;5114460;28;20710;-78
2023/03/31 00:20:26;;;;;;;32.80;6.47;;;;;;;;;;5114578;28;20198;-79
2023/03/31 00:22:56;;;;;;;40.87;8.00;;;;;;;;;;5114858;28;20706;-77
2023/03/31 00:25:23;;;;;;;36.10;6.13;;;;;;;;;;5114140;28;20292;-77
2023/03/31 00:27:51;;;;;;;43.27;7.33;;;;;;;;;;5114688;28;20189;-78
2023/03/31 00:30:19;;;;;;;40.13;7.17;;;;;;;;;;5114210;28;20717;-78
2023/03/31 00:32:47;;;;;;;38.23;7.00;;;;;;;;;;5114669;28;20202;-78
2023/03/31 00:35:14;;;;;;;43.80;8.20;;;;;;;;;;5114210;28;20194;-77
2023/03/31 00:37:44;;;;;;;36.57;7.57;;;;;;;;;;5114367;28;20236;-77
2023/03/31 00:40:13;;;;;;;44.37;7.60;;;;;;;;;;5114435;28;20624;-77
2023/03/31 00:42:41;;;;;;;39.90;7.37;;;;;;;;;;5114162;28;20668;-78
2023/03/31 00:45:30;;;;;;;42.63;7.50;;;;;;;;;;5113304;28;20669;-78
2023/03/31 00:48:02;;;;;;;45.67;7.77;;;;;;;;;;5113975;28;20287;-78
2023/03/31 00:50:32;;;;;;;39.57;7.47;;;;;;;;;;5113883;28;20320;-77
2023/03/31 00:53:01;;;;;;;48.13;7.73;;;;;;;;;;5114633;28;20560;-77
2023/03/31 00:55:31;;;;;;;46.77;7.60;;;;;;;;;;5114134;28;20288;-77
2023/03/31 00:58:00;;;;;;;43.43;7.70;;;;;;;;;;5114157;28;20285;-78
2023/03/31 01:00:29;;;;;;;49.20;7.50;;;;;;;;;;5114321;28;20681;-78
2023/03/31 01:02:57;;;;;;;40.87;7.73;;;;;;;;;;5113629;28;20702;-77
2023/03/31 01:05:26;;;;;;;42.80;7.50;;;;;;;;;;5113860;28;20194;-77
2023/03/31 01:07:55;;;;;;;47.90;8.40;;;;;;;;;;5113947;28;20194;-76
2023/03/31 01:10:22;;;;;;;47.10;8.77;;;;;;;;;;5113781;28;20257;-78
2023/03/31 01:12:53;;;;;;;39.50;7.80;;;;;;;;;;5113791;28;20646;-76
2023/03/31 01:15:20;;;;;;;38.40;6.80;;;;;;;;;;5113605;28;20221;-76
2023/03/31 01:17:49;;;;;;;45.70;8.23;;;;;;;;;;5113525;28;20297;-77
2023/03/31 01:20:20;;;;;;;39.17;7.70;;;;;;;;;;5114350;28;20202;-77
2023/03/31 01:23:09;;;;;;;52.53;8.27;;;;;;;;;;5105306;27;20245;-78
2023/03/31 01:25:56;;;;;;;44.10;8.30;;;;;;;;;;5097063;28;20301;-77
2023/03/31 01:28:30;;;;;;;48.27;8.47;;;;;;;;;;5093414;28;20239;-77
2023/03/31 01:31:10;;;;;;;32.90;6.67;;;;;;;;;;5093584;28;20320;-77
2023/03/31 01:33:56;;;;;;;22.77;4.37;;;;;;;;;;5093246;28;20290;-77
2023/03/31 01:36:29;;;;;;;20.90;4.70;;;;;;;;;;5093245;28;20259;-77
2023/03/31 01:39:14;;;;;;;29.57;5.10;;;;;;;;;;5092894;28;20572;-77
2023/03/31 01:41:50;;;;;;;29.77;5.40;;;;;;;;;;5092785;28;20285;-77
2023/03/31 01:44:21;;;;;;;23.23;4.90;;;;;;;;;;5092591;28;20676;-78
2023/03/31 01:46:50;;;;;;;30.33;5.17;;;;;;;;;;5092504;28;20274;-78
2023/03/31 01:49:20;;;;;;;40.57;6.50;;;;;;;;;;5092485;28;20222;-77
2023/03/31 01:51:50;;;;;;;33.60;6.03;;;;;;;;;;5092479;28;20316;-77
2023/03/31 01:54:21;;;;;;;43.27;6.93;;;;;;;;;;5092465;28;20186;-77
2023/03/31 01:56:52;;;;;;;51.57;7.83;;;;;;;;;;5092438;28;20234;-76
2023/03/31 01:59:21;;;;;;;33.90;7.23;;;;;;;;;;5092376;28;20282;-76
2023/03/31 02:01:52;;;;;;;40.40;6.90;;;;;;;;;;5092036;28;20294;-77
2023/03/31 02:04:21;;;;;;;45.77;7.40;;;;;;;;;;5092062;28;20686;-76
2023/03/31 02:06:55;;;;;;;48.03;8.00;;;;;;;;;;5092286;28;20679;-77
2023/03/31 02:09:23;;;;;;;55.43;7.80;;;;;;;;;;5092751;28;20194;-77
2023/03/31 02:11:52;;;;;;;49.10;8.27;;;;;;;;;;5092311;28;20237;-75
2023/03/31 02:14:22;;;;;;;43.90;7.03;;;;;;;;;;5110943;28;20231;-75
2023/03/31 02:16:51;;;;;;;50.00;7.97;;;;;;;;;;5112303;28;20289;-76
2023/03/31 02:19:19;;;;;;;42.93;7.20;;;;;;;;;;5112438;28;20193;-77
2023/03/31 02:21:48;;;;;;;42.00;8.20;;;;;;;;;;5112740;28;20229;-76
2023/03/31 02:24:16;;;;;;;44.70;8.00;;;;;;;;;;5112358;28;20228;-76
2023/03/31 02:26:47;;;;;;;46.93;7.00;;;;;;;;;;5112300;28;20564;-78
2023/03/31 02:29:16;;;;;;;39.83;7.00;;;;;;;;;;5112591;28;20236;-76
2023/03/31 02:31:47;;;;;;;39.27;7.27;;;;;;;;;;5111840;28;20835;-77
2023/03/31 02:34:14;;;;;;;41.23;6.93;;;;;;;;;;5112387;28;20674;-77
2023/03/31 02:36:42;;;;;;;47.97;7.23;;;;;;;;;;5112249;28;20285;-77
2023/03/31 02:39:11;;;;;;;50.53;9.07;;;;;;;;;;5112272;28;20209;-78
2023/03/31 02:41:39;;;;;;;47.00;8.70;;;;;;;;;;5112424;28;20202;-77
2023/03/31 02:44:06;;;;;;;42.10;7.40;;;;;;;;;;5112215;28;20727;-76
2023/03/31 02:46:34;;;;;;;45.23;6.87;;;;;;;;;;5111938;28;20198;-77
2023/03/31 02:49:03;;;;;;;34.30;7.20;;;;;;;;;;5112488;28;20273;-77
2023/03/31 02:51:52;;;;;;;43.73;6.77;;;;;;;;;;5111962;28;20312;-78
2023/03/31 02:54:26;;;;;;;41.93;6.17;;;;;;;;;;5111900;28;20254;-78
2023/03/31 02:57:04;;;;;;;40.30;6.83;;;;;;;;;;5112282;28;20289;-78
2023/03/31 02:59:39;;;;;;;42.07;6.43;;;;;;;;;;5112137;28;20189;-77
2023/03/31 03:02:13;;;;;;;35.90;6.90;;;;;;;;;;5111414;28;20296;-77
2023/03/31 03:04:48;;;;;;;32.57;6.40;;;;;;;;;;5111993;28;20280;-77
2023/03/31 03:07:19;;;;;;;38.93;6.93;;;;;;;;;;5111347;28;20197;-77
2023/03/31 03:09:52;;;;;;;33.60;6.63;;;;;;;;;;5111535;28;20280;-77
2023/03/31 03:12:23;;;;;;;35.10;6.60;;;;;;;;;;5111499;28;20264;-76
2023/03/31 03:14:54;;;;;;;36.47;6.57;;;;;;;;;;5111628;28;20234;-77
2023/03/31 03:17:24;;;;;;;39.80;6.50;;;;;;;;;;5111802;28;20205;-77
2023/03/31 03:19:52;;;;;;;28.43;5.80;;;;;;;;;;5111361;28;20216;-77
2023/03/31 03:22:19;;;;;;;28.37;6.47;;;;;;;;;;5111920;28;20237;-77
2023/03/31 03:24:46;;;;;;;37.90;6.53;;;;;;;;;;5111430;28;20209;-78
2023/03/31 03:27:14;;;;;;;34.47;5.60;;;;;;;;;;5111379;28;20296;-77
2023/03/31 03:29:42;;;;;;;35.03;5.90;;;;;;;;;;5111179;28;20975;-77
2023/03/31 03:32:09;;;;;;;30.47;5.57;;;;;;;;;;5111214;28;20261;-76
2023/03/31 03:34:38;;;;;;;28.10;5.53;;;;;;;;;;5111649;28;20284;-77
2023/03/31 03:37:06;;;;;;;35.50;6.00;;;;;;;;;;5111504;28;20198;-77
2023/03/31 03:39:33;;;;;;;30.77;5.77;;;;;;;;;;5111690;28;20190;-77
2023/03/31 03:42:00;;;;;;;34.33;6.70;;;;;;;;;;5111811;28;20311;-76
2023/03/31 03:44:27;;;;;;;30.83;6.00;;;;;;;;;;5111122;28;20221;-76
2023/03/31 03:46:54;;;;;;;35.90;6.07;;;;;;;;;;5111258;28;20253;-78
2023/03/31 03:49:22;;;;;;;32.20;4.80;;;;;;;;;;5111223;28;20194;-77
2023/03/31 03:51:50;;;;;;;34.87;5.97;;;;;;;;;;5111177;28;20316;-76
2023/03/31 03:54:17;;;;;;;29.33;6.10;;;;;;;;;;5111356;28;20292;-76
2023/03/31 03:56:44;;;;;;;36.83;6.53;;;;;;;;;;5111021;28;20232;-77
2023/03/31 03:59:12;;;;;;;29.97;5.60;;;;;;;;;;5111311;28;20646;-77
2023/03/31 04:01:39;;;;;;;30.27;5.40;;;;;;;;;;5110939;28;20293;-77
2023/03/31 04:04:06;;;;;;;28.50;5.60;;;;;;;;;;5110912;28;20212;-77
2023/03/31 04:06:34;;;;;;;26.63;5.13;;;;;;;;;;5111106;28;20218;-76
2023/03/31 04:09:02;;;;;;;22.83;4.83;;;;;;;;;;5111187;28;20290;-77
2023/03/31 04:11:30;;;;;;;27.57;4.63;;;;;;;;;;5111108;28;20233;-78
2023/03/31 04:13:57;;;;;;;29.43;4.53;;;;;;;;;;5110641;28;20298;-77
2023/03/31 04:16:25;;;;;;;27.73;4.83;;;;;;;;;;5111353;28;20221;-76
2023/03/31 04:18:55;;;;;;;25.37;5.37;;;;;;;;;;5111352;28;20208;-77
2023/03/31 04:21:22;;;;;;;23.60;4.80;;;;;;;;;;5114575;28;20662;-76
2023/03/31 04:23:57;;;;;;;25.50;5.30;;;;;;;;;;5115107;28;20251;-77
2023/03/31 04:26:29;;;;;;;27.20;5.10;;;;;;;;;;5114651;28;20250;-77
2023/03/31 04:28:59;;;;;;;28.87;5.07;;;;;;;;;;5114618;28;20232;-77
2023/03/31 04:31:26;;;;;;;22.03;5.27;;;;;;;;;;5114027;28;20313;-77
2023/03/31 04:33:53;;;;;;;27.50;5.57;;;;;;;;;;5115016;28;20243;-77
2023/03/31 04:36:20;;;;;;;30.13;5.67;;;;;;;;;;5114655;28;20213;-77
2023/03/31 04:38:49;;;;;;;29.00;5.13;;;;;;;;;;5114307;28;20225;-77
2023/03/31 04:41:16;;;;;;;28.30;5.57;;;;;;;;;;5113743;28;20200;-77
2023/03/31 04:43:45;;;;;;;27.87;5.60;;;;;;;;;;5114709;28;20662;-77
2023/03/31 04:46:12;;;;;;;25.03;4.93;;;;;;;;;;5113872;28;20615;-78
2023/03/31 04:48:40;;;;;;;29.93;5.20;;;;;;;;;;5113964;28;20268;-77
2023/03/31 04:51:07;;;;;;;25.10;5.20;;;;;;;;;;5113951;28;20229;-77
2023/03/31 04:53:34;;;;;;;24.00;4.83;;;;;;;;;;5114303;28;20198;-76
2023/03/31 04:56:02;;;;;;;22.93;4.90;;;;;;;;;;5113767;28;20231;-76
2023/03/31 04:58:29;;;;;;;24.07;5.13;;;;;;;;;;5114243;28;20616;-77
2023/03/31 05:00:58;;;;;;;23.93;4.70;;;;;;;;;;5114599;28;20201;-76
2023/03/31 05:03:26;;;;;;;27.47;5.03;;;;;;;;;;5113854;28;20892;-76
2023/03/31 05:05:53;;;;;;;25.43;4.90;;;;;;;;;;5113609;28;20570;-76
2023/03/31 05:08:20;;;;;;;21.80;4.40;;;;;;;;;;5113286;28;20672;-75
2023/03/31 05:10:47;;;;;;;22.47;4.67;;;;;;;;;;5109665;27;20278;-77
2023/03/31 05:13:14;;;;;;;30.33;4.97;;;;;;;;;;5108544;28;20243;-76
2023/03/31 05:15:43;;;;;;;25.60;4.77;;;;;;;;;;5108061;28;20237;-76
2023/03/31 05:18:12;;;;;;;26.93;4.90;;;;;;;;;;5102512;28;20229;-76
2023/03/31 05:20:39;;;;;;;23.97;5.13;;;;;;;;;;5092736;28;20198;-76
2023/03/31 05:23:07;;;;;;;25.00;4.50;;;;;;;;;;5092919;28;20198;-76
2023/03/31 05:25:34;;;;;;;30.27;5.93;;;;;;;;;;5094781;28;20238;-77
2023/03/31 05:28:02;;;;;;;29.90;5.10;;;;;;;;;;5104750;28;20248;-76
2023/03/31 05:30:30;;;;;;;26.90;4.00;;;;;;;;;;5113139;28;20247;-76
2023/03/31 05:32:57;;;;;;;21.27;4.23;;;;;;;;;;5112897;28;20287;-77
2023/03/31 05:35:26;;;;;;;24.17;5.07;;;;;;;;;;5116566;27;20225;-77
2023/03/31 05:37:53;;;;;;;22.57;4.50;;;;;;;;;;5132411;27;20280;-75
2023/03/31 05:40:20;;;;;;;23.93;4.83;;;;;;;;;;5127365;27;20284;-75
2023/03/31 05:42:47;;;;;;;22.47;4.97;;;;;;;;;;5123214;27;20209;-77
2023/03/31 05:45:14;;;;;;;27.57;4.57;;;;;;;;;;5121907;27;20280;-76
2023/03/31 05:47:41;;;;;;;24.27;4.53;;;;;;;;;;5111602;27;20304;-76
2023/03/31 05:50:09;;;;;;;27.70;5.70;;;;;;;;;;5110953;27;20293;-77
2023/03/31 05:52:38;;;;;;;21.43;4.80;;;;;;;;;;5088517;28;20719;-76
2023/03/31 05:55:05;;;;;;;24.20;5.27;;;;;;;;;;5108737;27;20284;-76
2023/03/31 05:57:32;;;;;;;29.67;5.07;;;;;;;;;;5111529;27;20292;-76
2023/03/31 05:59:59;;;;;;;25.43;5.20;;;;;;;;;;5107857;27;20206;-76
2023/03/31 06:02:27;;;;;;;28.93;5.00;;;;;;;;;;5108460;27;20741;-77
2023/03/31 06:04:54;;;;;;;26.40;4.97;;;;;;;;;;5112166;27;20281;-76
2023/03/31 06:07:21;;;;;;;29.90;4.87;;;;;;;;;;5109727;28;20255;-77
2023/03/31 06:09:50;;;;;;;27.87;4.30;;;;;;;;;;5113882;27;20251;-76
2023/03/31 06:12:17;;;;;;;24.73;4.27;;;;;;;;;;5113479;27;20312;-76
2023/03/31 06:14:44;;;;;;;20.70;4.47;;;;;;;;;;5111700;27;20225;-76
2023/03/31 06:17:12;;;;;;;22.10;4.37;;;;;;;;;;5110781;28;20284;-76
2023/03/31 06:19:39;;;;;;;19.97;3.43;;;;;;;;;;5110635;28;20293;-75
2023/03/31 06:22:06;;;;;;;23.53;5.30;;;;;;;;;;5113989;27;20288;-75
2023/03/31 06:24:33;;;;;;;21.97;3.90;;;;;;;;;;5111596;27;20297;-76
2023/03/31 06:27:02;;;;;;;22.60;4.13;;;;;;;;;;5110151;28;20293;-77
2023/03/31 06:29:29;;;;;;;24.63;4.77;;;;;;;;;;5107842;28;20197;-76
2023/03/31 06:31:57;;;;;;;25.47;4.73;;;;;;;;;;5108982;27;20308;-76
2023/03/31 06:34:24;;;;;;;27.13;3.77;;;;;;;;;;5114307;27;20285;-76
2023/03/31 06:36:52;;;;;;;23.33;4.30;;;;;;;;;;5109818;28;20293;-76
2023/03/31 06:39:19;;;;;;;28.67;4.80;;;;;;;;;;5119814;27;20197;-76
2023/03/31 06:41:46;;;;;;;21.23;4.63;;;;;;;;;;5117978;27;20578;-76
2023/03/31 06:44:15;;;;;;;20.10;3.90;;;;;;;;;;5124446;27;20217;-76
2023/03/31 06:46:43;;;;;;;26.60;4.93;;;;;;;;;;5120843;27;20202;-76
2023/03/31 06:49:10;;;;;;;20.13;4.17;;;;;;;;;;5121288;27;20233;-76
2023/03/31 06:51:37;;;;;;;25.07;4.33;;;;;;;;;;5110050;28;20320;-77
2023/03/31 06:54:05;;;;;;;21.87;4.37;;;;;;;;;;5109908;28;20290;-76
2023/03/31 06:56:32;;;;;;;23.63;4.83;;;;;;;;;;5113990;27;20193;-76
2023/03/31 06:58:59;;;;;;;25.53;4.57;;;;;;;;;;5116980;27;20594;-76
2023/03/31 07:01:28;;;;;;;26.07;4.10;;;;;;;;;;5116587;27;20204;-76
2023/03/31 07:03:55;;;;;;;24.03;4.63;;;;;;;;;;5113602;27;20293;-76
2023/03/31 07:06:22;;;;;;;23.30;5.13;;;;;;;;;;5109302;28;20314;-76
2023/03/31 07:08:49;;;;;;;20.03;3.97;;;;;;;;;;5115874;27;20296;-75
2023/03/31 07:11:16;;;;;;;22.20;4.27;;;;;;;;;;5109823;27;20221;-77
2023/03/31 07:13:43;;;;;;;23.17;4.27;;;;;;;;;;5116786;27;20318;-75
2023/03/31 07:16:12;;;;;;;26.07;4.77;;;;;;;;;;5111066;28;20741;-76
2023/03/31 07:18:41;;;;;;;22.07;3.70;;;;;;;;;;5113151;28;20204;-76
2023/03/31 07:21:08;;;;;;;23.60;4.30;;;;;;;;;;5114519;28;20722;-76
2023/03/31 07:23:36;;;;;;;15.93;3.10;;;;;;;;;;5110101;28;20677;-75
2023/03/31 07:26:03;;;;;;;19.87;3.60;;;;;;;;;;5118493;28;20291;-76
2023/03/31 07:28:30;;;;;;;22.57;4.37;;;;;;;;;;5111208;28;20289;-77
2023/03/31 07:30:57;;;;;;;18.10;3.47;;;;;;;;;;5109041;28;20229;-76
2023/03/31 07:33:25;;;;;;;26.13;4.67;;;;;;;;;;5118175;28;20320;-77
2023/03/31 07:35:53;;;;;;;25.37;4.33;;;;;;;;;;5116848;28;20232;-76
2023/03/31 07:38:20;;;;;;;23.67;5.03;;;;;;;;;;5114150;28;20221;-76
2023/03/31 07:40:47;;;;;;;24.87;4.37;;;;;;;;;;5109434;28;20301;-77
2023/03/31 07:43:15;;;;;;;23.20;4.87;;;;;;;;;;5109061;28;20293;-75
2023/03/31 07:45:42;;;;;;;26.40;5.20;;;;;;;;;;5111614;28;20300;-75
2023/03/31 07:48:09;;;;;;;24.47;4.80;;;;;;;;;;5114968;28;20333;-76
2023/03/31 07:50:36;;;;;;;25.23;5.57;;;;;;;;;;5108182;28;20206;-75
2023/03/31 07:53:05;;;;;;;27.10;5.73;;;;;;;;;;5108856;28;20311;-76
2023/03/31 07:55:32;;;;;;;22.77;4.30;;;;;;;;;;5112719;28;20197;-75
2023/03/31 07:57:59;;;;;;;24.33;5.10;;;;;;;;;;5116929;27;20236;-77
2023/03/31 08:00:27;;;;;;;20.50;3.90;;;;;;;;;;5113588;28;20236;-76
2023/03/31 08:02:54;;;;;;;24.57;4.53;;;;;;;;;;5114055;28;20258;-76
2023/03/31 08:05:21;;;;;;;24.07;4.00;;;;;;;;;;5103430;27;20229;-76
2023/03/31 08:07:50;;;;;;;25.60;4.27;;;;;;;;;;5121415;27;20932;-76
2023/03/31 08:10:20;;;;;;;19.47;4.23;;;;;;;;;;5107082;27;20195;-77
2023/03/31 08:12:47;;;;;;;20.97;3.83;;;;;;;;;;5116234;27;20644;-76
2023/03/31 08:15:15;;;;;;;23.83;3.97;;;;;;;;;;5119777;27;20257;-76
2023/03/31 08:17:42;;;;;;;21.40;3.77;;;;;;;;;;5119244;27;20665;-76
2023/03/31 08:20:10;;;;;;;21.57;4.47;;;;;;;;;;5115621;27;20360;-76
2023/03/31 08:22:37;;;;;;;20.70;4.30;;;;;;;;;;5115502;27;20316;-76
2023/03/31 08:25:05;;;;;;;25.93;3.73;;;;;;;;;;5119367;27;20287;-76
2023/03/31 08:27:34;;;;;;;19.67;4.10;;;;;;;;;;5119147;27;20202;-76
2023/03/31 08:30:04;;;;;;;24.20;4.43;;;;;;;;;;5113080;28;20293;-76
2023/03/31 08:32:32;;;;;;;20.00;3.77;;;;;;;;;;5112496;28;20221;-75
2023/03/31 08:34:59;;;;;;;22.87;4.57;;;;;;;;;;5112735;28;20961;-75
2023/03/31 08:37:27;;;;;;;23.93;4.47;;;;;;;;;;5123045;27;20208;-76
2023/03/31 08:39:54;;;;;;;16.80;3.70;;;;;;;;;;5112496;27;20197;-75
2023/03/31 08:42:24;;;;;;;22.53;3.93;;;;;;;;;;5113482;27;20210;-77
2023/03/31 08:44:55;;;;;;;20.37;3.77;;;;;;;;;;5113000;28;20205;-77
2023/03/31 08:47:24;;;;;;;21.47;4.17;;;;;;;;;;5118754;27;20320;-75
2023/03/31 08:49:53;;;;;;;19.03;3.80;;;;;;;;;;5112313;28;20197;-76
2023/03/31 08:52:23;;;;;;;24.70;4.23;;;;;;;;;;5117073;27;20236;-76
2023/03/31 08:54:53;;;;;;;20.00;3.70;;;;;;;;;;5114581;27;20193;-76
2023/03/31 08:57:22;;;;;;;22.00;5.07;;;;;;;;;;5114603;27;20285;-76
2023/03/31 08:59:51;;;;;;;21.43;4.17;;;;;;;;;;5112445;27;20659;-76
2023/03/31 09:02:23;;;;;;;22.70;4.47;;;;;;;;;;5109958;27;20246;-77
2023/03/31 09:05:04;;;;;;;21.77;3.80;;;;;;;;;;5112662;27;20220;-76
2023/03/31 09:07:35;;;;;;;22.17;4.63;;;;;;;;;;5122893;27;20761;-77
2023/03/31 09:10:08;;;;;;;17.90;3.40;;;;;;;;;;5122728;27;20198;-77
2023/03/31 09:12:40;;;;;;;21.03;3.77;;;;;;;;;;5112828;27;20313;-76
2023/03/31 09:15:11;;;;;;;18.43;3.80;;;;;;;;;;5112898;27;20293;-77
2023/03/31 09:17:41;;;;;;;22.47;3.57;;;;;;;;;;5122647;27;20254;-76
2023/03/31 09:20:13;;;;;;;18.97;3.47;;;;;;;;;;5119491;27;20644;-77
2023/03/31 09:22:42;;;;;;;13.87;3.30;;;;;;;;;;5118281;27;20201;-77
2023/03/31 09:25:12;;;;;;;18.27;3.40;;;;;;;;;;5111797;27;20205;-77
2023/03/31 09:27:41;;;;;;;13.70;3.50;;;;;;;;;;5111897;28;20343;-76
2023/03/31 09:30:11;;;;;;;13.97;3.33;;;;;;;;;;5112101;28;20225;-76
2023/03/31 09:32:40;;;;;;;14.07;3.10;;;;;;;;;;5116721;27;20220;-78
2023/03/31 09:35:15;;;;;;;13.90;2.80;;;;;;;;;;5122086;27;20205;-77
2023/03/31 09:37:42;;;;;;;13.97;2.97;;;;;;;;;;5120780;27;20636;-77
2023/03/31 09:40:16;;;;;;;14.25;2.83;;;;;;;;;;5100536;28;20194;-77
2023/03/31 09:42:43;;;;;;;17.83;3.57;;;;;;;;;;5107263;27;20229;-77
2023/03/31 09:45:15;;;;;;;17.40;3.77;;;;;;;;;;5104578;27;20333;-76
2023/03/31 09:47:45;;;;;;;16.77;3.72;;;;;;;;;;5110133;27;20294;-77
2023/03/31 09:50:13;;;;;;;17.92;3.97;;;;;;;;;;5118937;27;20285;-77
2023/03/31 09:52:41;;;;;;;15.82;3.70;;;;;;;;;;5109404;28;20221;-77
2023/03/31 09:55:16;;;;;;;17.70;3.45;;;;;;;;;;5104493;27;20217;-76
2023/03/31 09:57:43;;;;;;;16.20;4.20;;;;;;;;;;5117884;27;20280;-77
2023/03/31 10:00:16;;;;;;;17.67;3.63;;;;;;;;;;5117424;27;20288;-77
2023/03/31 10:02:48;;;;;;;16.53;3.90;;;;;;;;;;5111094;28;20685;-77
2023/03/31 10:05:28;;;;;;;15.53;3.67;;;;;;;;;;5109112;28;20228;-77
2023/03/31 10:08:12;;;;;;;17.57;3.60;;;;;;;;;;5109578;28;20225;-76
2023/03/31 10:10:44;;;;;;;18.20;3.80;;;;;;;;;;5112913;27;20284;-76
2023/03/31 10:13:14;;;;;;;16.00;2.97;;;;;;;;;;5115831;27;20273;-78
2023/03/31 10:15:42;;;;;;;21.23;4.33;;;;;;;;;;5112507;27;20221;-77
2023/03/31 10:18:14;;;;;;;19.07;3.73;;;;;;;;;;5108354;27;20198;-76
2023/03/31 10:20:45;;;;;;;16.40;3.67;;;;;;;;;;5111717;27;20743;-77
2023/03/31 10:23:17;;;;;;;14.33;3.00;;;;;;;;;;5109119;27;20228;-76
2023/03/31 10:25:45;;;;;;;16.45;3.70;;;;;;;;;;5109987;28;20282;-77
2023/03/31 10:28:13;;;;;;;21.42;3.60;;;;;;;;;;5107031;28;20202;-76
2023/03/31 10:30:40;;;;;;;13.18;2.75;;;;;;;;;;5112431;27;20205;-76
2023/03/31 10:33:12;;;;;;;14.35;2.45;;;;;;;;;;5107358;28;20308;-76
2023/03/31 10:35:41;;;;;;;13.55;2.78;;;;;;;;;;5109105;28;20313;-76
2023/03/31 10:38:11;;;;;;;11.68;3.03;;;;;;;;;;5106554;28;20284;-76
2023/03/31 10:40:39;;;;;;;11.20;2.73;;;;;;;;;;5109497;28;20289;-76
2023/03/31 10:43:10;;;;;;;14.70;2.77;;;;;;;;;;5107912;27;20292;-76
2023/03/31 10:45:39;;;;;;;13.27;2.60;;;;;;;;;;5109071;27;20614;-77
2023/03/31 10:48:17;;;;;;;12.00;2.20;;;;;;;;;;5102840;27;20312;-76
2023/03/31 10:50:46;;;;;;;12.40;2.67;;;;;;;;;;5110507;27;20284;-76
2023/03/31 10:53:14;;;;;;;12.97;2.20;;;;;;;;;;5108315;28;20312;-76
2023/03/31 10:55:45;;;;;;;12.00;2.70;;;;;;;;;;5109052;28;20197;-77
2023/03/31 10:58:19;;;;;;;12.50;2.88;;;;;;;;;;5110664;27;20639;-77
2023/03/31 11:00:54;;;;;;;11.77;2.67;;;;;;;;;;5105681;28;20194;-77
2023/03/31 11:03:37;;;;;;;13.00;3.08;;;;;;;;;;5108204;28;20208;-77
2023/03/31 11:06:11;;;;;;;18.67;3.38;;;;;;;;;;5108672;28;20219;-77
2023/03/31 11:08:46;;;;;;;14.02;3.13;;;;;;;;;;5109006;28;20186;-77
2023/03/31 11:11:27;;;;;;;11.82;2.92;;;;;;;;;;5105878;28;20289;-77
2023/03/31 11:13:57;;;;;;;10.73;3.10;;;;;;;;;;5112338;27;20316;-76
2023/03/31 11:16:28;;;;;;;11.90;3.15;;;;;;;;;;5115449;27;20288;-77
2023/03/31 11:19:02;;;;;;;12.85;2.90;;;;;;;;;;5122855;27;20304;-77
2023/03/31 11:21:33;;;;;;;9.30;2.50;;;;;;;;;;5114864;28;20197;-76
2023/03/31 11:24:06;;;;;;;12.50;2.30;;;;;;;;;;5108802;28;20288;-76
2023/03/31 11:26:39;;;;;;;12.75;2.47;;;;;;;;;;5103084;28;20581;-76
2023/03/31 11:29:11;;;;;;;10.00;2.45;;;;;;;;;;5105137;28;20198;-77
2023/03/31 11:31:41;;;;;;;10.43;2.70;;;;;;;;;;5114492;28;20217;-76
2023/03/31 11:34:23;;;;;;;13.50;2.75;;;;;;;;;;5110109;27;20308;-76
2023/03/31 11:37:06;;;;;;;11.32;2.88;;;;;;;;;;5119117;27;20733;-78
2023/03/31 11:39:42;;;;;;;12.88;2.75;;;;;;;;;;5111841;27;20202;-77
2023/03/31 11:42:11;;;;;;;14.65;3.30;;;;;;;;;;5117910;27;20632;-75
2023/03/31 11:44:41;;;;;;;14.73;3.53;;;;;;;;;;5127503;27;20212;-77
2023/03/31 11:47:10;;;;;;;12.23;2.72;;;;;;;;;;5111870;28;20295;-77
2023/03/31 11:49:40;;;;;;;10.13;2.97;;;;;;;;;;5114979;27;20190;-76
2023/03/31 11:52:09;;;;;;;12.98;2.60;;;;;;;;;;5114307;27;20229;-76
2023/03/31 11:54:42;;;;;;;12.30;2.65;;;;;;;;;;5101266;27;20232;-77
2023/03/31 11:57:11;;;;;;;9.60;2.20;;;;;;;;;;5110208;28;20276;-77
2023/03/31 11:59:40;;;;;;;11.05;2.70;;;;;;;;;;5111892;28;20628;-77
2023/03/31 12:02:15;;;;;;;9.23;2.10;;;;;;;;;;5116111;27;20903;-76
2023/03/31 12:04:43;;;;;;;8.70;2.00;;;;;;;;;;5108985;27;20229;-77
2023/03/31 12:07:18;;;;;;;6.43;2.10;;;;;;;;;;5113475;27;20287;-77
2023/03/31 12:09:50;;;;;;;6.95;2.00;;;;;;;;;;5112858;27;20221;-78
2023/03/31 12:12:21;;;;;;;7.90;1.70;;;;;;;;;;5114809;27;20269;-79
2023/03/31 12:14:52;;;;;;;7.47;1.65;;;;;;;;;;5114152;27;20248;-77
2023/03/31 12:17:20;;;;;;;6.40;1.70;;;;;;;;;;5106522;27;20221;-78
2023/03/31 12:19:49;;;;;;;5.07;1.60;;;;;;;;;;5107744;27;20277;-77
2023/03/31 12:22:19;;;;;;;7.15;1.42;;;;;;;;;;5122718;27;20201;-77
2023/03/31 12:24:48;;;;;;;6.63;1.60;;;;;;;;;;5112643;27;20909;-78
2023/03/31 12:27:18;;;;;;;7.75;1.75;;;;;;;;;;5114610;27;20237;-77
2023/03/31 12:29:47;;;;;;;8.68;2.35;;;;;;;;;;5111234;27;20194;-78
2023/03/31 12:32:16;;;;;;;8.23;2.17;;;;;;;;;;5112645;28;20193;-78
2023/03/31 12:34:46;;;;;;;9.18;2.35;;;;;;;;;;5109866;28;20253;-77
2023/03/31 12:37:32;;;;;;;8.68;2.42;;;;;;;;;;5110760;28;20235;-78
2023/03/31 12:40:06;;;;;;;11.82;3.17;;;;;;;;;;5106509;27;20193;-78
2023/03/31 12:42:48;;;;;;;9.90;2.80;;;;;;;;;;5123631;27;20700;-78
2023/03/31 12:45:20;;;;;;;12.68;2.92;;;;;;;;;;5108867;27;20209;-79
2023/03/31 12:48:08;;;;;;;11.77;2.95;;;;;;;;;;5103864;27;20263;-77
2023/03/31 12:50:46;;;;;;;13.55;2.92;;;;;;;;;;5111631;28;20206;-78
2023/03/31 12:53:19;;;;;;;12.00;2.97;;;;;;;;;;5105353;27;20249;-78
2023/03/31 12:55:50;;;;;;;10.55;2.53;;;;;;;;;;5107330;27;20197;-78
2023/03/31 12:58:36;;;;;;;11.13;2.60;;;;;;;;;;5109833;27;20197;-78
2023/03/31 13:01:05;;;;;;;13.63;2.67;;;;;;;;;;5110594;27;20221;-77
2023/03/31 13:03:44;;;;;;;9.70;2.60;;;;;;;;;;5111660;28;20973;-77
2023/03/31 13:06:11;;;;;;;10.30;2.20;;;;;;;;;;5108874;27;20761;-77
2023/03/31 13:08:52;;;;;;;5.97;1.67;;;;;;;;;;5117863;27;20255;-78
2023/03/31 13:11:22;;;;;;;9.57;2.03;;;;;;;;;;5117042;27;20779;-78
2023/03/31 13:13:57;;;;;;;10.83;2.33;;;;;;;;;;5110602;28;20266;-78
2023/03/31 13:16:24;;;;;;;10.60;2.43;;;;;;;;;;5112767;27;20587;-77
2023/03/31 13:18:52;;;;;;;10.63;2.03;;;;;;;;;;5116688;27;20277;-78
2023/03/31 13:21:19;;;;;;;12.97;2.40;;;;;;;;;;5112525;27;20197;-79
2023/03/31 13:23:47;;;;;;;8.10;2.50;;;;;;;;;;5119018;27;20204;-78
2023/03/31 13:26:38;;;;;;;11.45;2.45;;;;;;;;;;5109817;27;20225;-78
2023/03/31 13:29:27;;;;;;;7.78;1.90;;;;;;;;;;5090479;28;20312;-77
2023/03/31 13:32:20;;;;;;;11.70;2.35;;;;;;;;;;5096105;28;20243;-78
2023/03/31 13:34:51;;;;;;;11.30;2.35;;;;;;;;;;5120919;27;20323;-78
2023/03/31 13:37:26;;;;;;;8.95;2.10;;;;;;;;;;5111404;27;20229;-78
2023/03/31 13:40:05;;;;;;;9.90;2.40;;;;;;;;;;5111542;28;20194;-78
2023/03/31 13:42:50;;;;;;;8.57;2.45;;;;;;;;;;5115125;27;20398;-78
2023/03/31 13:45:25;;;;;;;8.23;1.88;;;;;;;;;;5047866;28;20211;-78
2023/03/31 13:48:13;;;;;;;9.23;2.00;;;;;;;;;;5052988;28;20270;-78
2023/03/31 13:50:47;;;;;;;9.18;2.08;;;;;;;;;;5045369;28;20204;-79
2023/03/31 13:53:25;;;;;;;8.68;2.00;;;;;;;;;;5046745;28;20230;-78
2023/03/31 13:55:58;;;;;;;8.27;1.90;;;;;;;;;;5042756;28;20207;-78
2023/03/31 13:58:39;;;;;;;10.35;2.38;;;;;;;;;;5046414;28;20335;-78
2023/03/31 14:01:19;;;;;;;6.80;1.85;;;;;;;;;;5047384;28;20200;-77
2023/03/31 14:03:55;;;;;;;7.97;1.70;;;;;;;;;;5046829;28;20231;-78
2023/03/31 14:06:27;;;;;;;9.35;1.80;;;;;;;;;;5047790;28;20253;-78
2023/03/31 14:08:57;;;;;;;7.80;2.20;;;;;;;;;;5048125;28;20299;-78
2023/03/31 14:11:25;;;;;;;7.40;1.90;;;;;;;;;;5047973;28;20243;-78
2023/03/31 14:14:02;;;;;;;7.68;1.65;;;;;;;;;;5041905;28;20251;-77
2023/03/31 14:16:30;;;;;;;5.50;1.52;;;;;;;;;;5047801;28;20261;-79
2023/03/31 14:19:01;;;;;;;8.40;1.65;;;;;;;;;;5051027;28;20195;-79
2023/03/31 14:21:35;;;;;;;6.80;1.77;;;;;;;;;;5061427;28;20252;-78
2023/03/31 14:24:05;;;;;;;9.38;2.05;;;;;;;;;;5106558;28;20202;-78
2023/03/31 14:26:51;;;;;;;7.63;1.60;;;;;;;;;;5105811;27;20289;-76
2023/03/31 14:29:22;;;;;;;10.20;1.98;;;;;;;;;;5101822;28;20204;-77
2023/03/31 14:31:53;;;;;;;9.00;1.90;;;;;;;;;;5099255;28;20189;-77
2023/03/31 14:34:36;;;;;;;11.07;2.58;;;;;;;;;;5116755;27;20232;-78
2023/03/31 14:37:07;;;;;;;7.47;1.67;;;;;;;;;;5106060;27;20205;-76
2023/03/31 14:39:35;;;;;;;10.65;2.03;;;;;;;;;;5103233;28;20194;-77
2023/03/31 14:42:05;;;;;;;8.95;1.90;;;;;;;;;;5112678;27;20221;-78
2023/03/31 14:44:34;;;;;;;5.13;1.88;;;;;;;;;;5113356;27;20609;-77
2023/03/31 14:47:01;;;;;;;9.05;1.95;;;;;;;;;;5113475;27;20229;-78
2023/03/31 14:49:29;;;;;;;6.45;1.13;;;;;;;;;;5100395;28;20662;-78